sensor_id;sensor_type;location;lat;lon;timestamp;pressure;altitude;pressure_sealevel;temperature
69186;BMP280;56298;49.246;9.410;2024-01-11T00:02:16;100508.13;;;-4.70
69186;BMP280;56298;49.246;9.410;2024-01-11T00:04:41;100504.91;;;-4.53
69186;BMP280;56298;49.246;9.410;2024-01-11T00:07:08;100503.50;;;-4.56
69186;BMP280;56298;49.246;9.410;2024-01-11T00:09:33;100507.00;;;-4.56
69186;BMP280;56298;49.246;9.410;2024-01-11T00:11:59;100503.97;;;-4.59
69186;BMP280;56298;49.246;9.410;2024-01-11T00:14:24;100504.97;;;-4.60
69186;BMP280;56298;49.246;9.410;2024-01-11T00:16:49;100499.72;;;-4.48
69186;BMP280;56298;49.246;9.410;2024-01-11T00:19:14;100505.94;;;-4.48
69186;BMP280;56298;49.246;9.410;2024-01-11T00:21:40;100504.69;;;-4.45
69186;BMP280;56298;49.246;9.410;2024-01-11T00:24:34;100499.66;;;-4.35
69186;BMP280;56298;49.246;9.410;2024-01-11T00:26:59;100498.22;;;-4.37
69186;BMP280;56298;49.246;9.410;2024-01-11T00:29:24;100504.84;;;-4.40
69186;BMP280;56298;49.246;9.410;2024-01-11T00:31:49;100500.84;;;-4.31
69186;BMP280;56298;49.246;9.410;2024-01-11T00:34:15;100506.41;;;-4.32
69186;BMP280;56298;49.246;9.410;2024-01-11T00:36:40;100503.63;;;-4.44
69186;BMP280;56298;49.246;9.410;2024-01-11T00:39:05;100494.97;;;-4.39
69186;BMP280;56298;49.246;9.410;2024-01-11T00:41:30;100508.13;;;-4.38
69186;BMP280;56298;49.246;9.410;2024-01-11T00:43:56;100502.16;;;-4.40
69186;BMP280;56298;49.246;9.410;2024-01-11T00:46:21;100508.13;;;-4.38
69186;BMP280;56298;49.246;9.410;2024-01-11T00:48:46;100512.59;;;-4.32
69186;BMP280;56298;49.246;9.410;2024-01-11T00:51:11;100514.28;;;-4.37
69186;BMP280;56298;49.246;9.410;2024-01-11T00:53:37;100508.78;;;-4.43
69186;BMP280;56298;49.246;9.410;2024-01-11T00:56:02;100523.63;;;-4.47
69186;BMP280;56298;49.246;9.410;2024-01-11T00:58:27;100519.66;;;-4.37
69186;BMP280;56298;49.246;9.410;2024-01-11T01:00:53;100525.69;;;-4.49
69186;BMP280;56298;49.246;9.410;2024-01-11T01:03:19;100520.91;;;-4.40
69186;BMP280;56298;49.246;9.410;2024-01-11T01:05:45;100528.78;;;-4.45
69186;BMP280;56298;49.246;9.410;2024-01-11T01:08:11;100536.41;;;-4.49
69186;BMP280;56298;49.246;9.410;2024-01-11T01:10:36;100518.41;;;-4.67
69186;BMP280;56298;49.246;9.410;2024-01-11T01:13:02;100523.94;;;-4.62
69186;BMP280;56298;49.246;9.410;2024-01-11T01:15:27;100519.66;;;-4.76
69186;BMP280;56298;49.246;9.410;2024-01-11T01:17:53;100519.94;;;-4.85
69186;BMP280;56298;49.246;9.410;2024-01-11T01:20:18;100525.47;;;-4.86
69186;BMP280;56298;49.246;9.410;2024-01-11T01:22:43;100531.66;;;-4.92
69186;BMP280;56298;49.246;9.410;2024-01-11T01:25:42;100526.09;;;-4.91
69186;BMP280;56298;49.246;9.410;2024-01-11T01:28:00;100518.91;;;-4.84
69186;BMP280;56298;49.246;9.410;2024-01-11T01:30:26;100524.41;;;-4.78
69186;BMP280;56298;49.246;9.410;2024-01-11T01:32:51;100525.25;;;-4.78
69186;BMP280;56298;49.246;9.410;2024-01-11T01:35:53;100528.34;;;-4.81
69186;BMP280;56298;49.246;9.410;2024-01-11T01:38:18;100526.72;;;-4.82
69186;BMP280;56298;49.246;9.410;2024-01-11T01:40:43;100530.66;;;-4.85
69186;BMP280;56298;49.246;9.410;2024-01-11T01:43:09;100533.56;;;-5.00
69186;BMP280;56298;49.246;9.410;2024-01-11T01:46:04;100533.63;;;-5.20
69186;BMP280;56298;49.246;9.410;2024-01-11T01:48:30;100539.38;;;-5.16
69186;BMP280;56298;49.246;9.410;2024-01-11T01:50:56;100541.06;;;-5.29
69186;BMP280;56298;49.246;9.410;2024-01-11T01:53:22;100544.34;;;-5.34
69186;BMP280;56298;49.246;9.410;2024-01-11T01:55:48;100544.47;;;-5.08
69186;BMP280;56298;49.246;9.410;2024-01-11T01:58:15;100546.94;;;-5.07
69186;BMP280;56298;49.246;9.410;2024-01-11T02:00:43;100554.41;;;-5.15
69186;BMP280;56298;49.246;9.410;2024-01-11T02:03:09;100546.56;;;-5.03
69186;BMP280;56298;49.246;9.410;2024-01-11T02:05:35;100556.81;;;-5.00
69186;BMP280;56298;49.246;9.410;2024-01-11T02:08:03;100543.84;;;-4.97
69186;BMP280;56298;49.246;9.410;2024-01-11T02:10:30;100544.81;;;-4.91
69186;BMP280;56298;49.246;9.410;2024-01-11T02:12:58;100538.47;;;-4.90
69186;BMP280;56298;49.246;9.410;2024-01-11T02:15:24;100532.03;;;-4.75
69186;BMP280;56298;49.246;9.410;2024-01-11T02:17:49;100538.81;;;-4.73
69186;BMP280;56298;49.246;9.410;2024-01-11T02:20:14;100537.59;;;-4.77
69186;BMP280;56298;49.246;9.410;2024-01-11T02:22:42;100541.72;;;-4.81
69186;BMP280;56298;49.246;9.410;2024-01-11T02:25:11;100536.63;;;-4.96
69186;BMP280;56298;49.246;9.410;2024-01-11T02:27:49;100538.72;;;-5.05
69186;BMP280;56298;49.246;9.410;2024-01-11T02:30:15;100536.91;;;-5.11
69186;BMP280;56298;49.246;9.410;2024-01-11T02:32:43;100534.69;;;-5.21
69186;BMP280;56298;49.246;9.410;2024-01-11T02:35:09;100537.56;;;-5.29
69186;BMP280;56298;49.246;9.410;2024-01-11T02:37:36;100533.88;;;-5.35
69186;BMP280;56298;49.246;9.410;2024-01-11T02:40:02;100548.06;;;-5.21
69186;BMP280;56298;49.246;9.410;2024-01-11T02:42:28;100537.34;;;-5.21
69186;BMP280;56298;49.246;9.410;2024-01-11T02:44:53;100536.91;;;-5.11
69186;BMP280;56298;49.246;9.410;2024-01-11T02:47:18;100537.72;;;-5.04
69186;BMP280;56298;49.246;9.410;2024-01-11T02:49:44;100537.25;;;-4.94
69186;BMP280;56298;49.246;9.410;2024-01-11T02:52:09;100532.72;;;-4.94
69186;BMP280;56298;49.246;9.410;2024-01-11T02:54:34;100542.19;;;-4.98
69186;BMP280;56298;49.246;9.410;2024-01-11T02:56:59;100536.25;;;-5.00
69186;BMP280;56298;49.246;9.410;2024-01-11T02:59:25;100531.06;;;-4.95
69186;BMP280;56298;49.246;9.410;2024-01-11T03:01:50;100537.88;;;-4.99
69186;BMP280;56298;49.246;9.410;2024-01-11T03:04:15;100532.53;;;-4.99
69186;BMP280;56298;49.246;9.410;2024-01-11T03:06:41;100531.09;;;-5.01
69186;BMP280;56298;49.246;9.410;2024-01-11T03:09:07;100532.97;;;-5.02
69186;BMP280;56298;49.246;9.410;2024-01-11T03:11:32;100531.09;;;-5.01
69186;BMP280;56298;49.246;9.410;2024-01-11T03:13:57;100530.25;;;-4.95
69186;BMP280;56298;49.246;9.410;2024-01-11T03:16:22;100532.53;;;-4.99
69186;BMP280;56298;49.246;9.410;2024-01-11T03:18:48;100535.91;;;-5.17
69186;BMP280;56298;49.246;9.410;2024-01-11T03:21:13;100534.50;;;-5.40
69186;BMP280;56298;49.246;9.410;2024-01-11T03:23:38;100533.47;;;-5.39
69186;BMP280;56298;49.246;9.410;2024-01-11T03:26:04;100528.97;;;-5.38
69186;BMP280;56298;49.246;9.410;2024-01-11T03:28:29;100532.22;;;-5.29
69186;BMP280;56298;49.246;9.410;2024-01-11T03:30:54;100538.19;;;-5.27
69186;BMP280;56298;49.246;9.410;2024-01-11T03:33:19;100539.63;;;-5.31
69186;BMP280;56298;49.246;9.410;2024-01-11T03:35:48;100546.06;;;-5.39
69186;BMP280;56298;49.246;9.410;2024-01-11T03:38:16;100530.16;;;-5.21
69186;BMP280;56298;49.246;9.410;2024-01-11T03:40:41;100531.81;;;-5.20
69186;BMP280;56298;49.246;9.410;2024-01-11T03:43:07;100524.56;;;-5.19
69186;BMP280;56298;49.246;9.410;2024-01-11T03:45:32;100530.09;;;-5.14
69186;BMP280;56298;49.246;9.410;2024-01-11T03:47:57;100527.22;;;-5.12
69186;BMP280;56298;49.246;9.410;2024-01-11T03:50:22;100530.53;;;-5.03
69186;BMP280;56298;49.246;9.410;2024-01-11T03:52:48;100525.56;;;-5.00
69186;BMP280;56298;49.246;9.410;2024-01-11T03:55:13;100522.28;;;-5.02
69186;BMP280;56298;49.246;9.410;2024-01-11T03:57:38;100518.78;;;-5.09
69186;BMP280;56298;49.246;9.410;2024-01-11T04:00:04;100521.28;;;-5.14
69186;BMP280;56298;49.246;9.410;2024-01-11T04:02:31;100522.91;;;-5.13
69186;BMP280;56298;49.246;9.410;2024-01-11T04:04:58;100526.84;;;-5.23
69186;BMP280;56298;49.246;9.410;2024-01-11T04:07:23;100521.53;;;-5.29
69186;BMP280;56298;49.246;9.410;2024-01-11T04:09:49;100523.56;;;-5.18
69186;BMP280;56298;49.246;9.410;2024-01-11T04:12:14;100516.34;;;-5.24
69186;BMP280;56298;49.246;9.410;2024-01-11T04:14:43;100517.44;;;-5.39
69186;BMP280;56298;49.246;9.410;2024-01-11T04:17:09;100519.31;;;-5.46
69186;BMP280;56298;49.246;9.410;2024-01-11T04:19:34;100517.06;;;-5.49
69186;BMP280;56298;49.246;9.410;2024-01-11T04:21:59;100513.97;;;-5.46
69186;BMP280;56298;49.246;9.410;2024-01-11T04:24:24;100520.13;;;-5.39
69186;BMP280;56298;49.246;9.410;2024-01-11T04:26:50;100517.66;;;-5.47
69186;BMP280;56298;49.246;9.410;2024-01-11T04:29:15;100517.69;;;-5.54
69186;BMP280;56298;49.246;9.410;2024-01-11T04:31:40;100520.53;;;-5.42
69186;BMP280;56298;49.246;9.410;2024-01-11T04:34:05;100513.56;;;-5.50
69186;BMP280;56298;49.246;9.410;2024-01-11T04:36:31;100515.00;;;-5.54
69186;BMP280;56298;49.246;9.410;2024-01-11T04:38:56;100517.25;;;-5.51
69186;BMP280;56298;49.246;9.410;2024-01-11T04:41:21;100524.66;;;-5.46
69186;BMP280;56298;49.246;9.410;2024-01-11T04:43:46;100520.97;;;-5.38
69186;BMP280;56298;49.246;9.410;2024-01-11T04:46:20;100523.16;;;-5.28
69186;BMP280;56298;49.246;9.410;2024-01-11T04:48:46;100522.16;;;-5.27
69186;BMP280;56298;49.246;9.410;2024-01-11T04:51:12;100533.63;;;-5.27
69186;BMP280;56298;49.246;9.410;2024-01-11T04:53:39;100535.50;;;-5.27
69186;BMP280;56298;49.246;9.410;2024-01-11T04:56:06;100531.59;;;-5.25
69186;BMP280;56298;49.246;9.410;2024-01-11T04:58:31;100548.88;;;-5.27
69186;BMP280;56298;49.246;9.410;2024-01-11T05:00:56;100539.38;;;-5.23
69186;BMP280;56298;49.246;9.410;2024-01-11T05:03:22;100544.34;;;-5.20
69186;BMP280;56298;49.246;9.410;2024-01-11T05:05:47;100539.63;;;-5.25
69186;BMP280;56298;49.246;9.410;2024-01-11T05:08:12;100540.19;;;-5.23
69186;BMP280;56298;49.246;9.410;2024-01-11T05:10:37;100541.44;;;-5.25
69186;BMP280;56298;49.246;9.410;2024-01-11T05:13:03;100543.34;;;-5.33
69186;BMP280;56298;49.246;9.410;2024-01-11T05:15:28;100547.63;;;-5.25
69186;BMP280;56298;49.246;9.410;2024-01-11T05:17:55;100558.16;;;-5.37
69186;BMP280;56298;49.246;9.410;2024-01-11T05:20:20;100559.41;;;-5.39
69186;BMP280;56298;49.246;9.410;2024-01-11T05:22:45;100556.09;;;-5.62
69186;BMP280;56298;49.246;9.410;2024-01-11T05:25:11;100549.72;;;-5.47
69186;BMP280;56298;49.246;9.410;2024-01-11T05:27:36;100542.16;;;-5.50
69186;BMP280;56298;49.246;9.410;2024-01-11T05:30:01;100550.16;;;-5.64
69186;BMP280;56298;49.246;9.410;2024-01-11T05:32:27;100549.34;;;-5.91
69186;BMP280;56298;49.246;9.410;2024-01-11T05:34:52;100550.38;;;-5.99
69186;BMP280;56298;49.246;9.410;2024-01-11T05:37:17;100562.47;;;-5.97
69186;BMP280;56298;49.246;9.410;2024-01-11T05:39:42;100559.59;;;-5.95
69186;BMP280;56298;49.246;9.410;2024-01-11T05:42:08;100555.28;;;-5.89
69186;BMP280;56298;49.246;9.410;2024-01-11T05:44:33;100553.22;;;-5.60
69186;BMP280;56298;49.246;9.410;2024-01-11T05:46:58;100553.44;;;-5.55
69186;BMP280;56298;49.246;9.410;2024-01-11T05:49:24;100564.94;;;-5.48
69186;BMP280;56298;49.246;9.410;2024-01-11T05:51:49;100562.28;;;-5.48
69186;BMP280;56298;49.246;9.410;2024-01-11T05:54:14;100573.38;;;-5.64
69186;BMP280;56298;49.246;9.410;2024-01-11T05:56:39;100563.94;;;-5.67
69186;BMP280;56298;49.246;9.410;2024-01-11T05:59:04;100562.88;;;-5.59
69186;BMP280;56298;49.246;9.410;2024-01-11T06:01:30;100563.72;;;-5.38
69186;BMP280;56298;49.246;9.410;2024-01-11T06:03:56;100569.28;;;-5.53
69186;BMP280;56298;49.246;9.410;2024-01-11T06:06:22;100564.56;;;-5.65
69186;BMP280;56298;49.246;9.410;2024-01-11T06:08:48;100571.72;;;-5.59
69186;BMP280;56298;49.246;9.410;2024-01-11T06:11:14;100568.22;;;-5.46
69186;BMP280;56298;49.246;9.410;2024-01-11T06:13:40;100564.50;;;-5.45
69186;BMP280;56298;49.246;9.410;2024-01-11T06:16:05;100565.94;;;-5.35
69186;BMP280;56298;49.246;9.410;2024-01-11T06:18:32;100570.91;;;-5.39
69186;BMP280;56298;49.246;9.410;2024-01-11T06:20:57;100574.19;;;-5.57
69186;BMP280;56298;49.246;9.410;2024-01-11T06:23:24;100575.00;;;-5.63
69186;BMP280;56298;49.246;9.410;2024-01-11T06:26:05;100580.38;;;-5.77
69186;BMP280;56298;49.246;9.410;2024-01-11T06:28:30;100573.81;;;-5.61
69186;BMP280;56298;49.246;9.410;2024-01-11T06:30:55;100568.66;;;-5.62
69186;BMP280;56298;49.246;9.410;2024-01-11T06:33:20;100575.66;;;-5.61
69186;BMP280;56298;49.246;9.410;2024-01-11T06:35:46;100573.19;;;-5.69
69186;BMP280;56298;49.246;9.410;2024-01-11T06:38:11;100586.13;;;-5.60
69186;BMP280;56298;49.246;9.410;2024-01-11T06:40:36;100584.88;;;-5.57
69186;BMP280;56298;49.246;9.410;2024-01-11T06:43:02;100595.41;;;-5.55
69186;BMP280;56298;49.246;9.410;2024-01-11T06:45:27;100592.28;;;-5.66
69186;BMP280;56298;49.246;9.410;2024-01-11T06:47:53;100599.69;;;-5.61
69186;BMP280;56298;49.246;9.410;2024-01-11T06:50:18;100601.31;;;-5.60
69186;BMP280;56298;49.246;9.410;2024-01-11T06:52:43;100602.16;;;-5.60
69186;BMP280;56298;49.246;9.410;2024-01-11T06:55:09;100607.31;;;-5.65
69186;BMP280;56298;49.246;9.410;2024-01-11T06:57:35;100606.69;;;-5.67
69186;BMP280;56298;49.246;9.410;2024-01-11T07:00:01;100620.00;;;-5.94
69186;BMP280;56298;49.246;9.410;2024-01-11T07:02:26;100618.94;;;-6.06
69186;BMP280;56298;49.246;9.410;2024-01-11T07:04:51;100622.22;;;-6.11
69186;BMP280;56298;49.246;9.410;2024-01-11T07:07:16;100632.91;;;-6.11
69186;BMP280;56298;49.246;9.410;2024-01-11T07:09:41;100628.44;;;-5.97
69186;BMP280;56298;49.246;9.410;2024-01-11T07:12:07;100625.16;;;-5.86
69186;BMP280;56298;49.246;9.410;2024-01-11T07:14:32;100620.44;;;-5.77
69186;BMP280;56298;49.246;9.410;2024-01-11T07:16:58;100642.22;;;-5.80
69186;BMP280;56298;49.246;9.410;2024-01-11T07:19:23;100643.41;;;-5.89
69186;BMP280;56298;49.246;9.410;2024-01-11T07:21:48;100652.91;;;-5.80
69186;BMP280;56298;49.246;9.410;2024-01-11T07:24:14;100641.59;;;-5.75
69186;BMP280;56298;49.246;9.410;2024-01-11T07:26:39;100651.06;;;-5.73
69186;BMP280;56298;49.246;9.410;2024-01-11T07:29:05;100648.16;;;-5.85
69186;BMP280;56298;49.246;9.410;2024-01-11T07:31:30;100649.00;;;-5.84
69186;BMP280;56298;49.246;9.410;2024-01-11T07:33:55;100651.06;;;-5.73
69186;BMP280;56298;49.246;9.410;2024-01-11T07:36:21;100656.84;;;-5.69
69186;BMP280;56298;49.246;9.410;2024-01-11T07:38:46;100662.78;;;-5.60
69186;BMP280;56298;49.246;9.410;2024-01-11T07:41:11;100668.97;;;-5.46
69186;BMP280;56298;49.246;9.410;2024-01-11T07:43:37;100666.31;;;-5.46
69186;BMP280;56298;49.246;9.410;2024-01-11T07:46:02;100668.16;;;-5.33
69186;BMP280;56298;49.246;9.410;2024-01-11T07:48:29;100660.13;;;-5.20
69186;BMP280;56298;49.246;9.410;2024-01-11T07:50:54;100662.59;;;-5.18
69186;BMP280;56298;49.246;9.410;2024-01-11T07:53:19;100671.44;;;-5.04
69186;BMP280;56298;49.246;9.410;2024-01-11T07:55:45;100679.22;;;-4.82
69186;BMP280;56298;49.246;9.410;2024-01-11T07:58:12;100683.09;;;-4.71
69186;BMP280;56298;49.246;9.410;2024-01-11T08:00:38;100679.75;;;-4.60
69186;BMP280;56298;49.246;9.410;2024-01-11T08:03:04;100674.38;;;-4.46
69186;BMP280;56298;49.246;9.410;2024-01-11T08:05:29;100671.44;;;-4.38
69186;BMP280;56298;49.246;9.410;2024-01-11T08:07:54;100676.31;;;-4.21
69186;BMP280;56298;49.246;9.410;2024-01-11T08:10:20;100691.75;;;-4.17
69186;BMP280;56298;49.246;9.410;2024-01-11T08:12:45;100693.06;;;-4.39
69186;BMP280;56298;49.246;9.410;2024-01-11T08:15:10;100688.28;;;-4.31
69186;BMP280;56298;49.246;9.410;2024-01-11T08:17:43;100688.75;;;-4.01
69186;BMP280;56298;49.246;9.410;2024-01-11T08:20:10;100699.59;;;-3.89
69186;BMP280;56298;49.246;9.410;2024-01-11T08:22:36;100691.03;;;-3.66
69186;BMP280;56298;49.246;9.410;2024-01-11T08:25:03;100690.66;;;-3.70
69186;BMP280;56298;49.246;9.410;2024-01-11T08:27:30;100682.91;;;-3.53
69186;BMP280;56298;49.246;9.410;2024-01-11T08:29:58;100680.53;;;-3.42
69186;BMP280;56298;49.246;9.410;2024-01-11T08:32:25;100683.31;;;-3.30
69186;BMP280;56298;49.246;9.410;2024-01-11T08:34:50;100685.94;;;-3.23
69186;BMP280;56298;49.246;9.410;2024-01-11T08:37:15;100689.44;;;-3.23
69186;BMP280;56298;49.246;9.410;2024-01-11T08:39:40;100694.56;;;-3.47
69186;BMP280;56298;49.246;9.410;2024-01-11T08:42:06;100691.47;;;-3.44
69186;BMP280;56298;49.246;9.410;2024-01-11T08:44:31;100693.41;;;-3.51
69186;BMP280;56298;49.246;9.410;2024-01-11T08:46:57;100692.50;;;-3.19
69186;BMP280;56298;49.246;9.410;2024-01-11T08:49:24;100702.03;;;-2.98
69186;BMP280;56298;49.246;9.410;2024-01-11T08:51:49;100703.22;;;-2.94
69186;BMP280;56298;49.246;9.410;2024-01-11T08:54:14;100700.91;;;-2.90
69186;BMP280;56298;49.246;9.410;2024-01-11T08:56:41;100700.56;;;-3.19
69186;BMP280;56298;49.246;9.410;2024-01-11T08:59:07;100711.63;;;-2.90
69186;BMP280;56298;49.246;9.410;2024-01-11T09:01:34;100704.25;;;-2.57
69186;BMP280;56298;49.246;9.410;2024-01-11T09:04:00;100695.50;;;-2.34
69186;BMP280;56298;49.246;9.410;2024-01-11T09:06:26;100708.41;;;-2.12
69186;BMP280;56298;49.246;9.410;2024-01-11T09:08:51;100698.66;;;-1.94
69186;BMP280;56298;49.246;9.410;2024-01-11T09:11:17;100708.59;;;-2.07
69186;BMP280;56298;49.246;9.410;2024-01-11T09:13:42;100697.38;;;-1.92
69186;BMP280;56298;49.246;9.410;2024-01-11T09:16:08;100699.25;;;-2.04
69186;BMP280;56298;49.246;9.410;2024-01-11T09:18:34;100703.44;;;-2.08
69186;BMP280;56298;49.246;9.410;2024-01-11T09:21:00;100698.38;;;-1.86
69186;BMP280;56298;49.246;9.410;2024-01-11T09:23:25;100703.91;;;-1.45
69186;BMP280;56298;49.246;9.410;2024-01-11T09:25:50;100697.34;;;-1.61
69186;BMP280;56298;49.246;9.410;2024-01-11T09:28:15;100695.38;;;-1.42
69186;BMP280;56298;49.246;9.410;2024-01-11T09:30:41;100698.56;;;-1.33
69186;BMP280;56298;49.246;9.410;2024-01-11T09:33:06;100704.03;;;-1.16
69186;BMP280;56298;49.246;9.410;2024-01-11T09:35:31;100698.78;;;-1.11
69186;BMP280;56298;49.246;9.410;2024-01-11T09:37:57;100691.28;;;-0.97
69186;BMP280;56298;49.246;9.410;2024-01-11T09:40:22;100691.22;;;-0.73
69186;BMP280;56298;49.246;9.410;2024-01-11T09:42:47;100695.00;;;-0.45
69186;BMP280;56298;49.246;9.410;2024-01-11T09:45:15;100692.28;;;-0.33
69186;BMP280;56298;49.246;9.410;2024-01-11T09:47:41;100684.81;;;-0.14
69186;BMP280;56298;49.246;9.410;2024-01-11T09:50:07;100690.06;;;-0.07
69186;BMP280;56298;49.246;9.410;2024-01-11T09:52:32;100690.72;;;0.01
69186;BMP280;56298;49.246;9.410;2024-01-11T09:55:01;100691.03;;;0.04
69186;BMP280;56298;49.246;9.410;2024-01-11T09:57:31;100697.66;;;0.13
69186;BMP280;56298;49.246;9.410;2024-01-11T09:59:58;100696.19;;;0.06
69186;BMP280;56298;49.246;9.410;2024-01-11T10:02:24;100694.47;;;0.17
69186;BMP280;56298;49.246;9.410;2024-01-11T10:04:52;100695.00;;;0.31
69186;BMP280;56298;49.246;9.410;2024-01-11T10:07:19;100704.19;;;0.01
69186;BMP280;56298;49.246;9.410;2024-01-11T10:09:46;100711.22;;;0.19
69186;BMP280;56298;49.246;9.410;2024-01-11T10:12:11;100695.03;;;0.36
69186;BMP280;56298;49.246;9.410;2024-01-11T10:14:37;100702.66;;;0.22
69186;BMP280;56298;49.246;9.410;2024-01-11T10:17:03;100702.50;;;0.29
69186;BMP280;56298;49.246;9.410;2024-01-11T10:19:28;100700.19;;;0.20
69186;BMP280;56298;49.246;9.410;2024-01-11T10:21:54;100702.91;;;0.20
69186;BMP280;56298;49.246;9.410;2024-01-11T10:24:19;100699.69;;;0.41
69186;BMP280;56298;49.246;9.410;2024-01-11T10:26:52;100695.81;;;0.53
69186;BMP280;56298;49.246;9.410;2024-01-11T10:29:17;100685.16;;;0.81
69186;BMP280;56298;49.246;9.410;2024-01-11T10:31:43;100687.34;;;0.45
69186;BMP280;56298;49.246;9.410;2024-01-11T10:34:08;100679.69;;;0.59
69186;BMP280;56298;49.246;9.410;2024-01-11T10:36:33;100677.50;;;0.73
69186;BMP280;56298;49.246;9.410;2024-01-11T10:39:02;100681.66;;;1.03
69186;BMP280;56298;49.246;9.410;2024-01-11T10:41:40;100671.56;;;1.15
69186;BMP280;56298;49.246;9.410;2024-01-11T10:44:18;100665.19;;;1.27
69186;BMP280;56298;49.246;9.410;2024-01-11T10:46:45;100662.22;;;1.51
69186;BMP280;56298;49.246;9.410;2024-01-11T10:49:33;100664.97;;;1.56
69186;BMP280;56298;49.246;9.410;2024-01-11T10:52:03;100672.09;;;1.67
69186;BMP280;56298;49.246;9.410;2024-01-11T10:54:31;100667.41;;;1.85
69186;BMP280;56298;49.246;9.410;2024-01-11T10:57:00;100684.25;;;1.97
69186;BMP280;56298;49.246;9.410;2024-01-11T10:59:26;100688.19;;;2.12
69186;BMP280;56298;49.246;9.410;2024-01-11T11:01:53;100688.75;;;2.19
69186;BMP280;56298;49.246;9.410;2024-01-11T11:04:40;100671.22;;;2.27
69186;BMP280;56298;49.246;9.410;2024-01-11T11:07:05;100658.34;;;2.07
69186;BMP280;56298;49.246;9.410;2024-01-11T11:09:34;100657.88;;;2.15
69186;BMP280;56298;49.246;9.410;2024-01-11T11:12:00;100666.22;;;2.08
69186;BMP280;56298;49.246;9.410;2024-01-11T11:14:25;100662.28;;;1.89
69186;BMP280;56298;49.246;9.410;2024-01-11T11:16:52;100662.38;;;2.04
69186;BMP280;56298;49.246;9.410;2024-01-11T11:19:43;100654.00;;;2.06
69186;BMP280;56298;49.246;9.410;2024-01-11T11:22:13;100654.41;;;2.20
69186;BMP280;56298;49.246;9.410;2024-01-11T11:24:39;100652.50;;;2.20
69186;BMP280;56298;49.246;9.410;2024-01-11T11:27:05;100645.28;;;2.31
69186;BMP280;56298;49.246;9.410;2024-01-11T11:29:30;100642.44;;;2.10
69186;BMP280;56298;49.246;9.410;2024-01-11T11:31:55;100640.75;;;2.47
69186;BMP280;56298;49.246;9.410;2024-01-11T11:34:41;100645.09;;;2.48
69186;BMP280;56298;49.246;9.410;2024-01-11T11:37:07;100644.97;;;2.76
69186;BMP280;56298;49.246;9.410;2024-01-11T11:39:34;100641.19;;;2.82
69186;BMP280;56298;49.246;9.410;2024-01-11T11:41:59;100642.31;;;2.86
69186;BMP280;56298;49.246;9.410;2024-01-11T11:44:26;100643.66;;;2.89
69186;BMP280;56298;49.246;9.410;2024-01-11T11:46:51;100635.91;;;2.06
69186;BMP280;56298;49.246;9.410;2024-01-11T11:49:17;100631.81;;;2.47
69186;BMP280;56298;49.246;9.410;2024-01-11T11:51:43;100625.13;;;2.60
69186;BMP280;56298;49.246;9.410;2024-01-11T11:54:08;100628.06;;;2.53
69186;BMP280;56298;49.246;9.410;2024-01-11T11:56:39;100613.78;;;2.68
69186;BMP280;56298;49.246;9.410;2024-01-11T11:59:06;100615.44;;;2.74
69186;BMP280;56298;49.246;9.410;2024-01-11T12:01:33;100616.59;;;2.94
69186;BMP280;56298;49.246;9.410;2024-01-11T12:04:00;100620.88;;;2.85
69186;BMP280;56298;49.246;9.410;2024-01-11T12:06:27;100608.97;;;2.86
69186;BMP280;56298;49.246;9.410;2024-01-11T12:08:54;100607.97;;;3.13
69186;BMP280;56298;49.246;9.410;2024-01-11T12:11:21;100619.41;;;3.30
69186;BMP280;56298;49.246;9.410;2024-01-11T12:13:47;100609.81;;;3.07
69186;BMP280;56298;49.246;9.410;2024-01-11T12:16:12;100602.72;;;2.80
69186;BMP280;56298;49.246;9.410;2024-01-11T12:18:38;100611.94;;;2.89
69186;BMP280;56298;49.246;9.410;2024-01-11T12:21:04;100613.66;;;3.11
69186;BMP280;56298;49.246;9.410;2024-01-11T12:23:29;100610.41;;;3.09
69186;BMP280;56298;49.246;9.410;2024-01-11T12:26:01;100609.59;;;3.24
69186;BMP280;56298;49.246;9.410;2024-01-11T12:28:28;100601.50;;;3.35
69186;BMP280;56298;49.246;9.410;2024-01-11T12:30:53;100601.22;;;3.41
69186;BMP280;56298;49.246;9.410;2024-01-11T12:33:19;100600.94;;;3.22
69186;BMP280;56298;49.246;9.410;2024-01-11T12:35:44;100587.66;;;3.26
69186;BMP280;56298;49.246;9.410;2024-01-11T12:38:10;100581.44;;;3.36
69186;BMP280;56298;49.246;9.410;2024-01-11T12:40:36;100591.72;;;3.28
69186;BMP280;56298;49.246;9.410;2024-01-11T12:43:03;100595.53;;;3.22
69186;BMP280;56298;49.246;9.410;2024-01-11T12:45:29;100590.63;;;3.24
69186;BMP280;56298;49.246;9.410;2024-01-11T12:47:55;100580.34;;;3.21
69186;BMP280;56298;49.246;9.410;2024-01-11T12:50:22;100579.38;;;2.63
69186;BMP280;56298;49.246;9.410;2024-01-11T12:53:12;100584.53;;;2.65
69186;BMP280;56298;49.246;9.410;2024-01-11T12:55:46;100576.94;;;2.72
69186;BMP280;56298;49.246;9.410;2024-01-11T12:58:12;100582.94;;;2.80
69186;BMP280;56298;49.246;9.410;2024-01-11T13:00:38;100581.91;;;2.91
69186;BMP280;56298;49.246;9.410;2024-01-11T13:03:04;100582.94;;;2.80
69186;BMP280;56298;49.246;9.410;2024-01-11T13:05:30;100577.53;;;2.85
69186;BMP280;56298;49.246;9.410;2024-01-11T13:08:02;100572.34;;;2.73
69186;BMP280;56298;49.246;9.410;2024-01-11T13:10:29;100564.78;;;2.75
69186;BMP280;56298;49.246;9.410;2024-01-11T13:12:54;100566.69;;;2.74
69186;BMP280;56298;49.246;9.410;2024-01-11T13:15:20;100565.88;;;2.69
69186;BMP280;56298;49.246;9.410;2024-01-11T13:17:46;100564.50;;;2.71
69186;BMP280;56298;49.246;9.410;2024-01-11T13:20:11;100567.16;;;2.56
69186;BMP280;56298;49.246;9.410;2024-01-11T13:22:36;100559.38;;;2.70
69186;BMP280;56298;49.246;9.410;2024-01-11T13:25:01;100568.16;;;2.39
69186;BMP280;56298;49.246;9.410;2024-01-11T13:27:27;100560.94;;;2.55
69186;BMP280;56298;49.246;9.410;2024-01-11T13:29:52;100568.69;;;2.36
69186;BMP280;56298;49.246;9.410;2024-01-11T13:32:17;100571.13;;;2.37
69186;BMP280;56298;49.246;9.410;2024-01-11T13:34:43;100571.94;;;2.38
69186;BMP280;56298;49.246;9.410;2024-01-11T13:37:09;100569.50;;;2.36
69186;BMP280;56298;49.246;9.410;2024-01-11T13:39:34;100577.09;;;2.34
69186;BMP280;56298;49.246;9.410;2024-01-11T13:41:59;100587.59;;;2.25
69186;BMP280;56298;49.246;9.410;2024-01-11T13:44:24;100582.28;;;1.98
69186;BMP280;56298;49.246;9.410;2024-01-11T13:46:50;100588.22;;;2.00
69186;BMP280;56298;49.246;9.410;2024-01-11T13:49:15;100594.47;;;2.01
69186;BMP280;56298;49.246;9.410;2024-01-11T13:51:41;100586.44;;;2.16
69186;BMP280;56298;49.246;9.410;2024-01-11T13:54:06;100600.94;;;2.00
69186;BMP280;56298;49.246;9.410;2024-01-11T13:56:31;100593.38;;;2.02